Time;durP1;ratioP1;P1;durP2;ratioP2;P2;SDS_P1;SDS_P2;PMS_P1;PMS_P2;Temp;Humidity;BMP_temperature;BMP_pressure;BME280_temperature;BME280_humidity;BME280_pressure;Samples;Min_cycle;Max_cycle;Signal;HPM_P1;HPM_P2
2022/12/17 13:07:27;;;;;;;98.10;44.03;;;;;;;-0.15;63.86;101174.41;4939707;28;98090;-87
2022/12/17 13:09:55;;;;;;;91.27;42.03;;;;;;;-0.09;63.90;101181.41;4947985;28;97832;-86
2022/12/17 13:12:34;;;;;;;95.57;43.47;;;;;;;-0.21;63.91;101165.66;4903034;28;101584;-85
2022/12/17 13:15:06;;;;;;;101.00;44.33;;;;;;;-0.07;64.15;101185.78;4930144;28;100432;-80
2022/12/17 13:17:35;;;;;;;91.72;42.55;;;;;;;-0.22;63.78;101163.91;4929456;28;97602;-81
2022/12/17 13:20:22;;;;;;;94.53;45.37;;;;;;;-0.10;63.65;101187.44;4931574;28;97628;-81
2022/12/17 13:22:51;;;;;;;104.23;43.40;;;;;;;-0.11;63.52;101194.31;4921501;28;101383;-82
2022/12/17 13:25:22;;;;;;;94.63;42.87;;;;;;;-0.22;63.78;101177.69;4907306;28;100926;-82
2022/12/17 13:27:48;;;;;;;95.20;41.77;;;;;;;-0.29;63.92;101171.53;4910502;28;97390;-82
2022/12/17 13:30:21;;;;;;;94.87;43.23;;;;;;;-0.14;63.67;101193.38;4912280;28;97470;-82
2022/12/17 13:33:05;;;;;;;92.33;42.87;;;;;;;-0.14;63.41;101194.25;4914588;28;101578;-82
2022/12/17 13:35:58;;;;;;;94.67;42.50;;;;;;;-0.11;63.94;101214.94;4923822;28;101426;-81
2022/12/17 13:38:43;;;;;;;93.90;42.13;;;;;;;-0.11;63.14;101214.94;4939893;28;97295;-81
2022/12/17 13:41:20;;;;;;;92.70;42.17;;;;;;;-0.10;63.81;101218.41;4937875;28;98291;-81
2022/12/17 13:43:58;;;;;;;98.50;43.20;;;;;;;-0.13;63.20;101211.47;4909050;28;98639;-85
2022/12/17 13:46:26;;;;;;;90.13;42.67;;;;;;;-0.16;63.35;101213.97;4929755;28;100113;-85
2022/12/17 13:48:56;;;;;;;101.50;43.30;;;;;;;-0.21;63.47;101212.97;4929267;28;97157;-85
2022/12/17 13:51:23;;;;;;;92.70;41.37;;;;;;;-0.15;63.60;101228.59;4932693;28;97411;-84
2022/12/17 13:54:00;;;;;;;92.20;40.17;;;;;;;-0.25;64.05;101211.16;4930882;28;101867;-82
2022/12/17 13:56:28;;;;;;;89.37;42.43;;;;;;;-0.32;63.49;101206.69;4928142;28;101643;-82
2022/12/17 13:58:55;;;;;;;91.37;41.50;;;;;;;-0.31;63.68;101213.59;4934459;28;97035;-82
2022/12/17 14:01:21;;;;;;;88.53;40.50;;;;;;;-0.15;63.13;101235.47;4929824;28;97372;-81
2022/12/17 14:03:53;;;;;;;93.27;41.97;;;;;;;-0.15;63.30;101248.38;4920732;28;101055;-86
2022/12/17 14:06:19;;;;;;;90.07;41.13;;;;;;;-0.18;63.31;101241.44;4935084;28;100276;-87
2022/12/17 14:08:45;;;;;;;90.10;40.87;;;;;;;-0.15;63.27;101257.00;4951705;28;97487;-87
2022/12/17 14:13:55;;;;;;;86.83;38.87;;;;;;;-0.20;63.15;101260.28;4926335;28;101318;-85
2022/12/17 14:16:21;;;;;;;85.17;39.63;;;;;;;-0.27;63.09;101256.69;4948096;28;101353;-87
2022/12/17 14:18:54;;;;;;;95.77;42.90;;;;;;;-0.21;62.91;101277.50;4921614;28;97350;-88
2022/12/17 14:21:21;;;;;;;93.10;40.00;;;;;;;-0.30;63.33;101267.81;4940650;28;97328;-87
2022/12/17 14:23:49;;;;;;;88.57;40.17;;;;;;;-0.33;63.09;101269.44;4910853;28;101548;-87
2022/12/17 14:26:15;;;;;;;86.97;39.10;;;;;;;-0.27;63.21;101273.03;4958580;28;98065;-85
2022/12/17 14:28:49;;;;;;;87.67;38.50;;;;;;;-0.23;62.89;101286.94;4962684;28;97253;-86
2022/12/17 14:31:21;;;;;;;92.40;40.07;;;;;;;-0.31;63.02;101278.13;4967534;28;97318;-86
2022/12/17 14:33:59;;;;;;;87.77;41.83;;;;;;;-0.37;62.72;101275.38;4911882;28;101685;-90
2022/12/17 14:36:35;;;;;;;87.13;38.93;;;;;;;-0.36;63.25;101283.13;4917981;28;100003;-92
2022/12/17 14:39:09;;;;;;;86.80;39.17;;;;;;;-0.28;63.09;101304.84;4962097;28;97286;-91
2022/12/17 14:44:26;;;;;;;89.77;42.03;;;;;;;-0.42;63.09;101280.41;4940541;28;101056;-88
2022/12/17 14:47:20;;;;;;;95.67;42.03;;;;;;;-0.21;63.41;101315.34;4927239;28;101372;-81
2022/12/17 14:49:55;;;;;;;90.23;39.20;;;;;;;-0.26;63.75;101304.91;4937347;28;97266;-82
2022/12/17 14:52:41;;;;;;;93.03;38.47;;;;;;;-0.20;62.58;101323.13;4963343;28;97240;-88
2022/12/17 14:55:29;;;;;;;93.57;42.67;;;;;;;-0.25;63.04;101328.16;4941008;28;101259;-80
2022/12/17 14:58:10;;;;;;;87.17;40.17;;;;;;;-0.26;62.74;101335.88;4944038;28;100483;-84
2022/12/17 15:00:54;;;;;;;90.33;38.93;;;;;;;-0.29;63.08;101335.78;4936766;28;97285;-84
2022/12/17 15:03:22;;;;;;;83.83;39.87;;;;;;;-0.29;63.12;101338.34;4935386;28;97328;-85
2022/12/17 15:06:12;;;;;;;83.43;36.40;;;;;;;-0.32;62.92;101344.34;4905368;28;100651;-87
2022/12/17 15:08:44;;;;;;;80.47;35.67;;;;;;;-0.33;62.67;101350.31;4944636;28;101345;-85
2022/12/17 15:11:12;;;;;;;82.50;36.77;;;;;;;-0.47;62.79;101323.25;4926151;28;97229;-86
2022/12/17 15:13:38;;;;;;;82.07;37.10;;;;;;;-0.41;62.73;101348.34;4925724;28;97279;-84
2022/12/17 15:16:04;;;;;;;79.07;36.17;;;;;;;-0.38;62.70;101349.31;4922596;28;100689;-87
2022/12/17 15:18:29;;;;;;;78.40;35.17;;;;;;;-0.39;62.86;101359.59;4917416;28;101637;-85
2022/12/17 15:20:55;;;;;;;79.97;35.47;;;;;;;-0.38;62.56;101362.19;4922634;28;97538;-86
2022/12/17 15:23:22;;;;;;;84.70;37.87;;;;;;;-0.40;62.27;101358.72;4924955;28;97314;-87
2022/12/17 15:25:50;;;;;;;85.20;37.67;;;;;;;-0.56;62.36;101341.94;4928275;28;101960;-86
2022/12/17 15:28:17;;;;;;;77.03;34.90;;;;;;;-0.58;62.49;101341.03;4914404;28;101387;-86
2022/12/17 15:30:42;;;;;;;76.27;34.43;;;;;;;-0.43;62.45;101368.97;4923167;28;97482;-86
2022/12/17 15:33:09;;;;;;;94.97;40.50;;;;;;;-0.46;61.82;101379.19;4926246;28;97501;-86
2022/12/17 15:35:35;;;;;;;93.47;40.13;;;;;;;-0.55;62.27;101372.09;4930428;28;101675;-86
2022/12/17 15:38:01;;;;;;;86.33;37.97;;;;;;;-0.54;62.30;101383.28;4937836;28;100169;-87
2022/12/17 15:40:26;;;;;;;79.80;36.20;;;;;;;-0.52;62.26;101387.66;4931538;28;97666;-86
2022/12/17 15:43:10;;;;;;;83.83;37.43;;;;;;;-0.50;62.49;101395.41;4911159;28;97452;-85
2022/12/17 15:45:47;;;;;;;76.57;35.50;;;;;;;-0.56;62.18;101390.94;4955161;28;101473;-86
2022/12/17 15:48:15;;;;;;;79.47;33.53;;;;;;;-0.54;62.03;101384.13;4934785;28;100225;-84
2022/12/17 15:50:40;;;;;;;73.50;33.73;;;;;;;-0.54;61.78;101393.59;4913170;28;96830;-85
2022/12/17 15:53:49;;;;;;;77.13;34.27;;;;;;;-0.56;62.13;101393.53;4890668;28;99194;-85
2022/12/17 15:56:23;;;;;;;78.15;34.08;;;;;;;-0.61;62.07;101389.97;4935621;28;100257;-85
2022/12/17 15:58:49;;;;;;;76.83;31.57;;;;;;;-0.62;62.17;101385.63;4926118;28;101408;-85
2022/12/17 16:01:15;;;;;;;77.80;32.10;;;;;;;-0.66;62.23;101382.94;4924671;28;98071;-84
2022/12/17 16:03:40;;;;;;;68.70;31.27;;;;;;;-0.54;62.09;101402.19;4925464;28;97486;-84
2022/12/17 16:06:06;;;;;;;65.37;29.67;;;;;;;-0.54;61.74;101407.34;4910764;28;98189;-84
2022/12/17 16:08:31;;;;;;;62.50;27.50;;;;;;;-0.53;61.52;101408.22;4930935;28;97543;-83
2022/12/17 16:10:57;;;;;;;63.63;29.07;;;;;;;-0.80;62.14;101362.75;4919373;28;97324;-84
2022/12/17 16:13:22;;;;;;;60.50;26.77;;;;;;;-0.52;62.51;101410.00;4942120;28;97094;-84
2022/12/17 16:15:58;;;;;;;57.77;24.67;;;;;;;-0.54;61.77;101409.94;4927944;28;99953;-84
2022/12/17 16:18:24;;;;;;;52.50;22.67;;;;;;;-0.68;61.93;101393.19;4928534;28;101344;-83
2022/12/17 16:20:49;;;;;;;49.57;22.00;;;;;;;-0.57;61.69;101421.88;4939471;28;97310;-84
2022/12/17 16:23:15;;;;;;;48.77;22.70;;;;;;;-0.71;61.66;101400.84;4932642;28;96831;-84
2022/12/17 16:25:41;;;;;;;47.77;21.97;;;;;;;-0.72;61.55;101412.84;4942559;28;99752;-83
2022/12/17 16:28:07;;;;;;;48.97;22.83;;;;;;;-0.73;61.86;101416.28;4953119;28;98538;-85
2022/12/17 16:30:33;;;;;;;44.03;19.83;;;;;;;-0.64;61.58;101427.66;4933948;28;97405;-83
2022/12/17 16:32:58;;;;;;;42.17;19.67;;;;;;;-0.64;61.49;101443.13;4960863;28;97442;-86
2022/12/17 16:35:24;;;;;;;41.50;17.93;;;;;;;-0.59;62.03;101457.06;4908263;28;102105;-86
2022/12/17 16:37:50;;;;;;;44.93;19.27;;;;;;;-0.87;61.63;101409.84;4932439;28;100269;-86
2022/12/17 16:40:16;;;;;;;41.83;18.57;;;;;;;-0.62;61.56;101457.84;4891057;28;97462;-86
2022/12/17 16:42:41;;;;;;;48.07;21.63;;;;;;;-0.64;61.84;101462.09;4909053;28;97018;-86
2022/12/17 16:45:07;;;;;;;48.97;21.43;;;;;;;-0.61;61.66;101471.59;4928630;28;101697;-86
2022/12/17 16:47:33;;;;;;;51.50;23.13;;;;;;;-0.62;61.79;101468.16;4898018;28;99592;-86
2022/12/17 16:49:58;;;;;;;51.70;21.97;;;;;;;-0.66;61.73;101462.88;4947525;28;97165;-86
2022/12/17 16:52:24;;;;;;;50.23;22.13;;;;;;;-0.59;61.93;101469.94;4949800;28;97005;-85
2022/12/17 16:54:49;;;;;;;44.63;21.53;;;;;;;-0.70;61.67;101465.38;4927224;28;100898;-85
2022/12/17 16:57:15;;;;;;;53.90;22.70;;;;;;;-0.73;61.71;101457.53;4934709;28;100513;-85
2022/12/17 16:59:40;;;;;;;47.80;22.03;;;;;;;-0.73;61.93;101460.13;4906914;28;98772;-84
2022/12/17 17:02:11;;;;;;;56.30;24.67;;;;;;;-0.74;61.83;101449.75;4903208;28;97562;-84
2022/12/17 17:04:38;;;;;;;53.73;23.63;;;;;;;-0.59;61.51;101483.72;4919500;28;101514;-84
2022/12/17 17:07:04;;;;;;;50.33;22.77;;;;;;;-0.60;61.63;101479.41;4944329;28;101038;-85
2022/12/17 17:09:29;;;;;;;51.87;22.40;;;;;;;-0.60;62.05;101481.97;4915720;28;96895;-85
2022/12/17 17:11:57;;;;;;;49.47;23.23;;;;;;;-0.60;61.84;101492.28;4944208;28;97297;-85
2022/12/17 17:14:23;;;;;;;48.17;21.43;;;;;;;-0.58;61.81;101487.16;4920304;28;98712;-85
2022/12/17 17:16:48;;;;;;;52.80;22.40;;;;;;;-0.64;62.21;101485.31;4938423;28;100143;-83
2022/12/17 17:19:14;;;;;;;52.63;22.33;;;;;;;-0.73;62.40;101473.00;4940771;28;96839;-84
2022/12/17 17:21:41;;;;;;;51.03;22.13;;;;;;;-0.62;61.99;101493.06;4914334;28;97296;-83
2022/12/17 17:24:10;;;;;;;61.23;23.70;;;;;;;-0.66;62.53;101491.25;4927997;28;98074;-84
2022/12/17 17:26:37;;;;;;;48.70;22.83;;;;;;;-0.64;62.48;101505.03;4934498;28;97997;-83
2022/12/17 17:29:03;;;;;;;60.73;24.17;;;;;;;-0.69;61.94;101498.06;4912235;28;96778;-84
2022/12/17 17:31:29;;;;;;;53.27;22.83;;;;;;;-0.65;62.00;101509.31;4941717;28;97060;-84
2022/12/17 17:33:55;;;;;;;58.17;23.93;;;;;;;-0.87;61.93;101482.03;4913347;28;99582;-83
2022/12/17 17:36:28;;;;;;;49.63;23.13;;;;;;;-0.89;62.41;101475.94;4911377;28;100183;-83
2022/12/17 17:38:55;;;;;;;56.03;23.70;;;;;;;-0.73;61.67;101503.06;4916417;28;96922;-84
2022/12/17 17:41:23;;;;;;;52.37;22.70;;;;;;;-0.68;62.06;101514.41;4923029;28;96952;-84
2022/12/17 17:44:00;;;;;;;52.07;23.53;;;;;;;-0.65;61.93;101522.22;4922967;28;99949;-84
2022/12/17 17:46:27;;;;;;;57.10;23.83;;;;;;;-0.74;61.81;101519.38;4899811;28;101096;-82
2022/12/17 17:48:56;;;;;;;48.37;23.87;;;;;;;-0.67;62.48;101526.44;4903465;28;97433;-85
2022/12/17 17:51:23;;;;;;;53.63;22.27;;;;;;;-0.68;62.20;101525.56;4923326;28;96871;-85
2022/12/17 17:53:51;;;;;;;51.50;23.80;;;;;;;-0.74;61.98;101514.22;4929711;28;100604;-85
2022/12/17 17:56:28;;;;;;;54.27;23.37;;;;;;;-0.64;62.42;101533.41;4925896;28;98154;-84
2022/12/17 17:58:57;;;;;;;53.73;24.43;;;;;;;-0.64;62.41;101536.00;4916236;28;97343;-84
2022/12/17 18:01:28;;;;;;;52.10;22.17;;;;;;;-0.65;62.17;101534.25;4923558;28;97403;-83
2022/12/17 18:03:59;;;;;;;47.97;22.10;;;;;;;-0.78;62.47;101512.38;4912742;28;98506;-83
2022/12/17 18:06:26;;;;;;;46.47;22.70;;;;;;;-0.69;62.15;101535.88;4912839;28;97303;-83
2022/12/17 18:08:54;;;;;;;51.03;22.77;;;;;;;-0.77;61.74;101525.31;4889738;28;97367;-85
2022/12/17 18:11:20;;;;;;;50.47;23.13;;;;;;;-0.98;61.80;101494.56;4925744;28;96824;-86
2022/12/17 18:13:55;;;;;;;56.80;24.20;;;;;;;-0.80;61.88;101526.91;4932690;28;100954;-86
2022/12/17 18:16:25;;;;;;;50.47;24.00;;;;;;;-0.63;61.15;101556.69;4909046;28;98998;-85
2022/12/17 18:18:56;;;;;;;53.13;23.37;;;;;;;-0.63;61.85;101558.41;4938236;28;97247;-84
2022/12/17 18:21:22;;;;;;;47.67;22.08;;;;;;;-0.85;62.12;101525.88;4927847;28;97617;-85
2022/12/17 18:23:54;;;;;;;51.13;23.20;;;;;;;-0.71;61.60;101551.28;4933375;28;101551;-84
2022/12/17 18:26:21;;;;;;;52.35;23.88;;;;;;;-0.65;62.01;101573.81;4922664;28;98184;-85
2022/12/17 18:28:47;;;;;;;53.10;23.30;;;;;;;-0.78;61.78;101562.25;4910417;28;96869;-84
2022/12/17 18:31:16;;;;;;;62.80;26.23;;;;;;;-0.77;62.10;101560.53;4910040;28;98472;-86
2022/12/17 18:33:55;;;;;;;49.97;23.50;;;;;;;-0.81;62.02;101558.69;4922664;28;100646;-85
2022/12/17 18:36:26;;;;;;;51.27;23.80;;;;;;;-0.84;61.78;101553.41;4896954;28;101176;-86
2022/12/17 18:39:04;;;;;;;52.10;25.40;;;;;;;-0.76;62.18;101570.88;4924336;28;97478;-86
2022/12/17 18:44:15;;;;;;;50.33;22.40;;;;;;;-0.68;61.74;101591.75;4918908;28;100391;-85
2022/12/17 18:46:40;;;;;;;53.63;23.60;;;;;;;-0.70;61.45;101593.41;4918870;28;101120;-87
2022/12/17 18:49:08;;;;;;;51.37;23.83;;;;;;;-0.69;61.56;101597.75;4947593;28;96778;-86
2022/12/17 18:51:36;;;;;;;55.00;26.20;;;;;;;-0.79;61.57;101586.25;4911666;28;97718;-86
2022/12/17 18:54:03;;;;;;;51.83;22.77;;;;;;;-0.86;61.24;101574.00;4930240;28;99546;-85
2022/12/17 18:56:29;;;;;;;53.73;23.83;;;;;;;-0.84;61.34;101589.50;4930822;28;101271;-84
2022/12/17 18:58:55;;;;;;;54.73;24.63;;;;;;;-0.76;61.72;101601.81;4926405;28;97968;-86
2022/12/17 19:01:29;;;;;;;53.40;23.73;;;;;;;-0.77;61.83;101596.63;4908233;28;97045;-85
2022/12/17 19:03:55;;;;;;;52.20;24.40;;;;;;;-0.75;61.40;101611.31;4929232;28;101078;-85
2022/12/17 19:06:22;;;;;;;54.87;23.87;;;;;;;-0.88;61.51;101598.84;4912546;28;101130;-86
2022/12/17 19:08:49;;;;;;;53.03;24.40;;;;;;;-0.75;61.52;101620.78;4936590;28;97462;-85
2022/12/17 19:11:17;;;;;;;54.27;24.80;;;;;;;-0.76;61.83;101622.44;4908073;28;99111;-86
2022/12/17 19:13:43;;;;;;;52.00;23.97;;;;;;;-0.84;61.50;101623.94;4927529;28;98403;-85
2022/12/17 19:16:11;;;;;;;51.17;23.40;;;;;;;-0.84;61.69;101629.09;4935468;28;101989;-85
2022/12/17 19:18:37;;;;;;;61.77;25.20;;;;;;;-0.83;61.04;101632.53;4926564;28;97616;-85
2022/12/17 19:21:03;;;;;;;56.90;23.73;;;;;;;-0.83;61.50;101632.53;4937790;28;97002;-85
2022/12/17 19:23:29;;;;;;;53.20;23.63;;;;;;;-0.91;61.39;101627.97;4893047;28;100203;-89
2022/12/17 19:25:55;;;;;;;55.17;24.40;;;;;;;-0.80;61.38;101653.25;4906418;28;99809;-85
2022/12/17 19:28:21;;;;;;;53.17;24.50;;;;;;;-0.86;61.46;101633.31;4930008;28;97633;-87
2022/12/17 19:30:47;;;;;;;53.57;23.50;;;;;;;-0.82;61.37;101644.59;4940899;28;97555;-86
2022/12/17 19:33:12;;;;;;;52.70;22.90;;;;;;;-0.81;61.39;101654.97;4929038;28;98083;-86
2022/12/17 19:35:38;;;;;;;53.33;23.30;;;;;;;-0.83;61.46;101651.44;4942629;28;101941;-85
2022/12/17 19:38:03;;;;;;;50.30;22.10;;;;;;;-0.84;61.55;101653.97;4900789;28;97429;-87
2022/12/17 19:40:29;;;;;;;44.93;21.03;;;;;;;-1.01;61.39;101636.25;4938311;28;97095;-84
2022/12/17 19:42:55;;;;;;;48.43;21.30;;;;;;;-0.97;61.35;101650.09;4928075;28;101193;-85
2022/12/17 19:45:20;;;;;;;53.13;23.00;;;;;;;-0.93;61.30;101658.00;4926331;28;101983;-85
2022/12/17 19:47:47;;;;;;;62.33;26.63;;;;;;;-1.00;61.25;101653.44;4912601;28;97273;-91
2022/12/17 19:50:12;;;;;;;56.87;25.57;;;;;;;-1.05;61.34;101664.44;4934574;28;96864;-82
2022/12/17 19:52:38;;;;;;;60.20;25.13;;;;;;;-1.12;61.12;101650.47;4928547;28;101719;-90
2022/12/17 19:55:04;;;;;;;54.07;24.00;;;;;;;-0.98;61.35;101674.16;4915646;28;100931;-88
2022/12/17 19:57:32;;;;;;;52.30;25.10;;;;;;;-0.97;61.12;101683.63;4906943;28;97185;-83
2022/12/17 19:59:58;;;;;;;54.07;24.37;;;;;;;-1.09;61.41;101663.44;4929505;28;97309;-84
2022/12/17 20:02:23;;;;;;;56.67;24.83;;;;;;;-0.99;61.33;101680.09;4923328;28;99836;-87
2022/12/17 20:04:49;;;;;;;55.57;26.00;;;;;;;-1.00;61.12;101686.97;4944559;28;101677;-88
2022/12/17 20:07:15;;;;;;;59.77;26.73;;;;;;;-0.99;60.94;101691.31;4924498;28;97218;-94
2022/12/17 20:09:43;;;;;;;62.17;27.27;;;;;;;-1.13;61.68;101669.34;4926220;28;97187;-83
2022/12/17 20:12:09;;;;;;;64.53;29.23;;;;;;;-1.06;61.24;101679.03;4925197;28;101701;-83
2022/12/17 20:14:36;;;;;;;69.67;29.57;;;;;;;-1.06;61.33;101686.75;4918934;28;98515;-82
2022/12/17 20:17:03;;;;;;;70.67;30.43;;;;;;;-1.08;61.63;101683.22;4938725;28;97297;-83
2022/12/17 20:19:30;;;;;;;68.03;31.07;;;;;;;-1.02;61.26;101705.78;4904142;28;97149;-84
2022/12/17 20:21:57;;;;;;;71.67;31.17;;;;;;;-1.09;61.73;101696.97;4915416;28;101609;-83
2022/12/17 20:24:23;;;;;;;70.53;30.80;;;;;;;-1.00;61.65;101701.56;4924184;28;98209;-85
2022/12/17 20:26:50;;;;;;;72.73;29.97;;;;;;;-1.02;61.32;101714.41;4926675;28;97346;-82
2022/12/17 20:29:20;;;;;;;74.37;31.03;;;;;;;-1.08;61.26;101710.72;4902188;28;97935;-85
2022/12/17 20:31:46;;;;;;;76.47;32.10;;;;;;;-1.17;61.28;101691.53;4931969;28;101375;-83
2022/12/17 20:34:13;;;;;;;78.87;32.23;;;;;;;-1.05;61.23;101722.00;4892435;28;101506;-82
2022/12/17 20:36:39;;;;;;;70.07;32.13;;;;;;;-1.06;61.44;101712.53;4922242;28;97210;-82
2022/12/17 20:39:05;;;;;;;74.10;31.50;;;;;;;-1.20;61.23;101690.53;4949325;28;97647;-83
2022/12/17 20:41:31;;;;;;;75.10;33.37;;;;;;;-1.19;61.46;101690.63;4942355;28;101446;-84
2022/12/17 20:44:04;;;;;;;73.70;31.20;;;;;;;-1.11;61.71;101720.91;4919467;28;100078;-84
2022/12/17 20:46:30;;;;;;;63.67;29.23;;;;;;;-1.08;61.58;101732.19;4921367;28;97073;-84
2022/12/17 20:48:57;;;;;;;75.83;33.63;;;;;;;-1.11;61.80;101738.97;4945585;28;97052;-85
2022/12/17 20:51:24;;;;;;;67.77;31.27;;;;;;;-1.06;61.82;101746.03;4957732;28;98183;-83
2022/12/17 20:53:51;;;;;;;73.70;31.37;;;;;;;-1.20;61.71;101722.34;4943822;28;100959;-84
2022/12/17 20:56:19;;;;;;;74.07;32.17;;;;;;;-1.10;61.63;101749.34;4939805;28;97776;-83
2022/12/17 20:58:45;;;;;;;67.87;32.43;;;;;;;-1.18;61.48;101731.00;4901907;28;97115;-84
2022/12/17 21:01:13;;;;;;;70.03;33.17;;;;;;;-1.20;61.51;101730.06;4931814;28;101117;-84
2022/12/17 21:03:39;;;;;;;80.27;34.37;;;;;;;-1.14;62.04;101745.75;4903350;28;98404;-85
2022/12/17 21:06:17;;;;;;;72.87;33.67;;;;;;;-1.17;61.61;101737.91;4942590;28;97986;-83
2022/12/17 21:08:44;;;;;;;65.40;31.13;;;;;;;-1.24;61.75;101729.91;4914825;28;97414;-84
2022/12/17 21:11:10;;;;;;;81.07;34.77;;;;;;;-1.10;61.56;101748.47;4926005;28;101556;-84
2022/12/17 21:13:36;;;;;;;72.17;33.10;;;;;;;-1.12;61.54;101747.53;4940919;28;101419;-84
2022/12/17 21:16:14;;;;;;;79.60;34.07;;;;;;;-1.09;61.89;101757.94;4934010;28;96797;-82
2022/12/17 21:18:39;;;;;;;83.43;35.53;;;;;;;-1.19;62.20;101749.88;4928172;28;97334;-87
2022/12/17 21:21:11;;;;;;;74.83;33.00;;;;;;;-1.40;61.68;101718.16;4931714;28;98442;-87
2022/12/17 21:23:38;;;;;;;75.70;33.33;;;;;;;-1.26;61.72;101744.44;4934546;28;101026;-85
2022/12/17 21:26:10;;;;;;;83.13;35.70;;;;;;;-1.16;61.72;101770.59;4942042;28;97306;-89
2022/12/17 21:28:36;;;;;;;73.65;33.28;;;;;;;-1.14;62.05;101776.66;4899852;28;96801;-85
2022/12/17 21:31:02;;;;;;;79.47;34.50;;;;;;;-1.26;61.76;101749.59;4915645;28;101340;-89
2022/12/17 21:33:28;;;;;;;74.80;33.63;;;;;;;-1.16;61.56;101772.31;4911772;28;98329;-88
2022/12/17 21:36:02;;;;;;;73.47;31.60;;;;;;;-1.12;61.55;101770.72;4939231;28;96739;-87
2022/12/17 21:38:28;;;;;;;73.77;31.13;;;;;;;-1.12;61.80;101774.16;4931384;28;96980;-87
2022/12/17 21:40:55;;;;;;;71.47;32.47;;;;;;;-1.16;62.13;101767.16;4929398;28;98037;-85
2022/12/17 21:43:21;;;;;;;79.80;34.07;;;;;;;-1.12;61.97;101788.75;4947973;28;100055;-87
2022/12/17 21:45:46;;;;;;;73.40;31.70;;;;;;;-1.19;62.09;101782.50;4919208;28;96843;-87
2022/12/17 21:48:12;;;;;;;71.50;31.53;;;;;;;-1.25;62.09;101780.59;4931076;28;96826;-88
2022/12/17 21:50:42;;;;;;;71.80;32.17;;;;;;;-1.18;62.14;101777.41;4921792;28;101373;-86
2022/12/17 21:53:08;;;;;;;70.30;30.73;;;;;;;-1.12;61.92;101791.34;4950102;28;98424;-87
2022/12/17 21:55:34;;;;;;;70.37;30.73;;;;;;;-1.10;62.24;101792.28;4930669;28;98047;-85
2022/12/17 21:58:00;;;;;;;64.77;28.50;;;;;;;-1.18;61.78;101785.13;4928689;28;97030;-85
2022/12/17 22:00:26;;;;;;;68.93;30.13;;;;;;;-1.14;61.88;101789.56;4903560;28;100321;-87
2022/12/17 22:02:52;;;;;;;60.70;28.23;;;;;;;-1.18;61.94;101792.84;4931999;28;101247;-88
2022/12/17 22:05:18;;;;;;;65.87;29.57;;;;;;;-1.24;62.08;101778.88;4931042;28;97247;-86
2022/12/17 22:07:43;;;;;;;59.97;28.10;;;;;;;-1.04;62.04;101807.97;4948111;28;97078;-90
2022/12/17 22:10:09;;;;;;;66.53;29.37;;;;;;;-1.06;62.05;101804.44;4938522;28;98328;-85
2022/12/17 22:15:23;;;;;;;64.73;28.53;;;;;;;-1.11;61.89;101793.94;4906876;28;97170;-86
2022/12/17 22:17:49;;;;;;;65.93;28.77;;;;;;;-1.08;61.85;101804.38;4896544;28;97502;-85
2022/12/17 22:20:17;;;;;;;59.73;27.73;;;;;;;-1.09;61.82;101805.22;4914519;28;101487;-86
2022/12/17 22:22:44;;;;;;;66.37;28.30;;;;;;;-1.05;62.21;101807.06;4914580;28;101366;-87
2022/12/17 22:25:10;;;;;;;62.80;27.60;;;;;;;-1.35;62.31;101755.28;4914585;28;97462;-87
2022/12/17 22:27:37;;;;;;;58.90;26.80;;;;;;;-1.07;61.90;101806.16;4908740;28;97831;-89
2022/12/17 22:33:01;;;;;;;58.23;24.83;;;;;;;-1.12;62.01;101792.22;4958375;28;98315;-88
2022/12/17 22:35:38;;;;;;;58.80;25.67;;;;;;;-1.05;62.20;101819.06;4924274;28;98065;-86
2022/12/17 22:38:05;;;;;;;53.67;24.83;;;;;;;-1.19;62.58;101791.13;4911926;28;97338;-91
2022/12/17 22:40:35;;;;;;;59.27;24.47;;;;;;;-1.34;62.00;101766.47;4934647;28;98538;-88
2022/12/17 22:45:45;;;;;;;52.60;23.37;;;;;;;-1.07;62.07;101821.63;4912146;28;98149;-88
2022/12/17 22:48:11;;;;;;;54.00;24.60;;;;;;;-1.32;61.70;101777.72;4906611;28;96910;-88
2022/12/17 22:50:38;;;;;;;53.93;24.40;;;;;;;-1.11;62.17;101814.56;4931175;28;97916;-89
2022/12/17 22:53:04;;;;;;;54.90;24.30;;;;;;;-1.01;62.05;101831.28;4923812;28;101335;-88
2022/12/17 22:55:31;;;;;;;55.67;23.67;;;;;;;-1.03;62.00;101827.75;4926900;28;97239;-86
2022/12/17 22:57:57;;;;;;;51.67;22.77;;;;;;;-1.12;62.18;101806.81;4915306;28;97022;-89
2022/12/17 23:00:26;;;;;;;54.93;24.17;;;;;;;-1.00;61.89;101840.75;4944652;28;97465;-89
2022/12/17 23:02:53;;;;;;;57.77;25.40;;;;;;;-1.00;62.26;101833.03;4946909;28;97256;-84
2022/12/17 23:05:23;;;;;;;47.10;23.00;;;;;;;-1.29;62.06;101785.56;4926934;28;99788;-85
2022/12/17 23:07:49;;;;;;;54.53;25.83;;;;;;;-1.05;62.19;101831.97;4947934;28;97378;-84
2022/12/17 23:10:15;;;;;;;50.03;24.07;;;;;;;-1.21;61.83;101799.59;4937688;28;101192;-87
2022/12/17 23:12:50;;;;;;;49.83;22.67;;;;;;;-1.32;61.87;101780.28;4932422;28;100781;-89
2022/12/17 23:15:36;;;;;;;51.00;23.40;;;;;;;-1.28;62.13;101795.03;4933437;28;96744;-88
2022/12/17 23:18:05;;;;;;;53.13;22.93;;;;;;;-1.11;61.96;101826.59;4929742;28;97202;-90
2022/12/17 23:20:32;;;;;;;51.43;23.07;;;;;;;-1.05;62.28;101838.00;4914340;28;101271;-87
2022/12/17 23:22:58;;;;;;;55.73;23.43;;;;;;;-1.05;61.98;101837.13;4937833;28;97786;-88
2022/12/17 23:25:25;;;;;;;48.40;22.13;;;;;;;-1.18;61.75;101823.78;4939582;28;97158;-87
2022/12/17 23:27:50;;;;;;;53.93;23.13;;;;;;;-1.12;62.05;101836.03;4914817;28;97152;-86
2022/12/17 23:30:16;;;;;;;53.50;25.47;;;;;;;-1.09;62.52;101853.31;4920607;28;101070;-88
2022/12/17 23:32:43;;;;;;;50.93;23.60;;;;;;;-1.14;62.21;101846.25;4926844;28;101111;-90
2022/12/17 23:35:09;;;;;;;50.43;21.53;;;;;;;-1.07;62.22;101855.13;4928263;28;97066;-89
2022/12/17 23:37:35;;;;;;;53.83;23.90;;;;;;;-1.12;62.31;101851.50;4926727;28;98655;-83
2022/12/17 23:40:01;;;;;;;53.17;22.77;;;;;;;-1.12;62.11;101853.19;4908345;28;98792;-87
2022/12/17 23:42:26;;;;;;;57.10;24.07;;;;;;;-1.10;62.55;101867.91;4913622;28;101652;-87
2022/12/17 23:44:52;;;;;;;49.17;22.60;;;;;;;-1.13;62.33;101857.47;4916043;28;96791;-88
2022/12/17 23:47:17;;;;;;;50.93;22.00;;;;;;;-1.08;62.61;101865.34;4936879;28;97303;-88
2022/12/17 23:49:43;;;;;;;43.47;20.07;;;;;;;-1.07;62.68;101860.28;4910451;28;101586;-88
2022/12/17 23:52:08;;;;;;;44.67;20.27;;;;;;;-1.11;62.43;101855.81;4937849;28;101363;-88
2022/12/17 23:54:34;;;;;;;44.03;20.03;;;;;;;-1.09;62.74;101858.47;4924622;28;96764;-89
2022/12/17 23:57:00;;;;;;;46.93;22.10;;;;;;;-1.14;62.49;101856.56;4925684;28;97176;-89
2022/12/17 23:59:25;;;;;;;47.83;20.87;;;;;;;-1.07;62.64;101867.13;4914723;28;98017;-88
